Time;durP1;ratioP1;P1;durP2;ratioP2;P2;SDS_P1;SDS_P2;PMS_P1;PMS_P2;Temp;Humidity;BMP_temperature;BMP_pressure;BME280_temperature;BME280_humidity;BME280_pressure;Samples;Min_cycle;Max_cycle;Signal;HPM_P1;HPM_P2
2023/06/07 00:00:01;;;;;;;11.68;5.28;;;;;;;11.47;100.00;101943.75;5041777;28;20249;-44
2023/06/07 00:02:27;;;;;;;13.05;5.85;;;;;;;11.50;100.00;101948.16;5043208;28;20228;-42
2023/06/07 00:04:53;;;;;;;16.25;5.72;;;;;;;11.12;100.00;101948.13;5039753;28;20665;-43
2023/06/07 00:07:18;;;;;;;11.23;5.45;;;;;;;11.39;100.00;101953.78;5038294;28;20196;-44
2023/06/07 00:09:44;;;;;;;12.43;5.10;;;;;;;11.34;100.00;101951.19;5037862;28;20694;-43
2023/06/07 00:12:10;;;;;;;10.68;4.50;;;;;;;11.42;100.00;101959.06;5038349;28;20598;-42
2023/06/07 00:14:36;;;;;;;11.70;5.50;;;;;;;11.46;100.00;101946.47;5039450;28;20317;-44
2023/06/07 00:17:02;;;;;;;12.48;5.30;;;;;;;11.50;100.00;101950.81;5039200;28;20208;-43
2023/06/07 00:19:29;;;;;;;12.23;5.20;;;;;;;11.41;100.00;101965.34;5043603;28;20210;-43
2023/06/07 00:21:57;;;;;;;9.93;5.05;;;;;;;11.52;100.00;101957.94;5039231;28;20270;-45
2023/06/07 00:24:23;;;;;;;11.10;4.47;;;;;;;11.51;100.00;101960.66;5045045;28;20255;-43
2023/06/07 00:26:48;;;;;;;12.27;5.30;;;;;;;11.14;100.00;101965.06;5038229;28;20697;-42
2023/06/07 00:29:17;;;;;;;16.35;5.93;;;;;;;11.16;100.00;101954.31;5040156;28;20176;-43
2023/06/07 00:31:42;;;;;;;13.20;4.97;;;;;;;11.16;100.00;101964.16;5040345;28;20184;-42
2023/06/07 00:34:08;;;;;;;13.77;4.90;;;;;;;11.31;100.00;101967.38;5041706;28;20167;-44
2023/06/07 00:36:36;;;;;;;10.95;5.07;;;;;;;11.25;100.00;101964.81;5036393;28;20208;-45
2023/06/07 00:39:02;;;;;;;12.20;5.43;;;;;;;11.20;100.00;101963.19;5038569;28;20258;-44
2023/06/07 00:41:28;;;;;;;13.43;6.00;;;;;;;11.29;100.00;101974.56;5038867;28;20843;-43
2023/06/07 00:43:54;;;;;;;12.95;5.10;;;;;;;11.26;100.00;101960.34;5037350;28;20172;-43
2023/06/07 00:46:22;;;;;;;14.05;5.10;;;;;;;11.23;100.00;101963.97;5037766;28;20630;-44
2023/06/07 00:48:50;;;;;;;13.57;5.03;;;;;;;11.31;100.00;101963.81;5039327;28;20287;-43
2023/06/07 00:51:18;;;;;;;16.50;5.78;;;;;;;11.05;100.00;101962.59;5040725;28;20250;-44
2023/06/07 00:53:46;;;;;;;13.50;5.07;;;;;;;10.85;100.00;101960.34;5036471;28;20230;-44
2023/06/07 00:56:13;;;;;;;14.63;4.60;;;;;;;10.80;100.00;101967.63;5036498;28;20716;-46
2023/06/07 00:58:39;;;;;;;19.13;5.90;;;;;;;10.61;100.00;101964.41;5038876;28;20215;-43
2023/06/07 01:01:05;;;;;;;17.15;5.80;;;;;;;10.87;100.00;101965.69;5040745;28;20744;-45
2023/06/07 01:03:34;;;;;;;14.05;4.90;;;;;;;10.95;100.00;101958.34;5041894;28;20187;-43
2023/06/07 01:06:03;;;;;;;13.75;5.30;;;;;;;10.71;100.00;101960.66;5039446;28;20745;-44
2023/06/07 01:08:30;;;;;;;15.35;4.65;;;;;;;10.86;100.00;101953.19;5043903;28;20184;-42
2023/06/07 01:10:58;;;;;;;14.73;4.72;;;;;;;10.83;100.00;101962.19;5034655;28;20263;-44
2023/06/07 01:13:25;;;;;;;14.05;4.65;;;;;;;10.86;100.00;101950.50;5042931;28;20569;-43
2023/06/07 01:15:51;;;;;;;13.98;4.72;;;;;;;10.84;100.00;101955.88;5040067;28;20615;-43
2023/06/07 01:18:18;;;;;;;14.20;5.03;;;;;;;10.73;100.00;101955.22;5041611;28;20176;-43
2023/06/07 01:20:51;;;;;;;18.15;5.63;;;;;;;10.69;100.00;101951.75;5039436;28;20295;-46
2023/06/07 01:23:27;;;;;;;13.73;4.95;;;;;;;10.74;100.00;101954.34;5044946;28;20233;-44
2023/06/07 01:25:55;;;;;;;11.18;4.57;;;;;;;10.80;100.00;101956.91;5038475;28;20305;-43
2023/06/07 01:28:21;;;;;;;20.42;5.22;;;;;;;10.52;100.00;101944.06;5036517;28;20183;-44
2023/06/07 01:30:48;;;;;;;14.98;5.30;;;;;;;10.70;100.00;101953.50;5043507;28;20170;-44
2023/06/07 01:33:16;;;;;;;17.38;5.60;;;;;;;10.64;100.00;101948.25;5045580;28;20502;-45
2023/06/07 01:35:44;;;;;;;13.68;5.03;;;;;;;10.63;100.00;101940.28;5044832;28;20216;-43
2023/06/07 01:38:13;;;;;;;14.38;4.53;;;;;;;10.69;100.00;101946.41;5038719;28;20559;-43
2023/06/07 01:40:42;;;;;;;14.65;4.82;;;;;;;10.67;100.00;101940.19;5043470;28;20200;-43
2023/06/07 01:43:08;;;;;;;13.23;4.72;;;;;;;10.71;100.00;101935.63;5042285;28;20659;-43
2023/06/07 01:45:35;;;;;;;14.90;5.07;;;;;;;10.70;100.00;101940.09;5042959;28;20547;-45
2023/06/07 01:48:01;;;;;;;14.82;5.55;;;;;;;10.53;100.00;101936.88;5040033;28;20592;-43
2023/06/07 01:50:27;;;;;;;9.85;4.65;;;;;;;10.57;100.00;101930.56;5045421;28;20191;-43
2023/06/07 01:52:52;;;;;;;13.50;4.90;;;;;;;10.54;100.00;101932.41;5045842;28;20556;-45
2023/06/07 01:55:19;;;;;;;11.77;4.90;;;;;;;10.52;100.00;101927.97;5042653;28;20240;-44
2023/06/07 01:58:00;;;;;;;13.40;4.78;;;;;;;10.49;100.00;101929.81;5040521;28;20199;-45
2023/06/07 02:00:32;;;;;;;15.13;5.95;;;;;;;10.29;100.00;101916.81;5037086;28;20195;-44
2023/06/07 02:03:16;;;;;;;16.70;5.50;;;;;;;10.35;100.00;101918.50;5040195;28;20183;-42
2023/06/07 02:05:47;;;;;;;17.15;5.22;;;;;;;10.17;100.00;101919.72;5044660;28;20203;-44
2023/06/07 02:08:30;;;;;;;15.70;5.57;;;;;;;10.17;100.00;101928.63;5041230;28;20645;-45
2023/06/07 02:10:57;;;;;;;20.27;6.43;;;;;;;9.93;100.00;101927.28;5040076;28;20246;-43
2023/06/07 02:13:25;;;;;;;18.38;7.38;;;;;;;9.82;100.00;101922.13;5042997;28;20263;-44
2023/06/07 02:15:50;;;;;;;17.90;7.15;;;;;;;9.87;100.00;101930.06;5039468;28;20286;-44
2023/06/07 02:18:19;;;;;;;18.80;7.72;;;;;;;9.90;100.00;101925.56;5045571;28;20314;-44
2023/06/07 02:20:45;;;;;;;21.55;8.75;;;;;;;9.93;100.00;101938.00;5042253;28;20328;-44
2023/06/07 02:23:13;;;;;;;25.33;9.43;;;;;;;9.98;100.00;101929.88;5046580;28;20176;-44
2023/06/07 02:25:38;;;;;;;30.38;11.95;;;;;;;10.02;100.00;101935.16;5042713;28;20236;-44
2023/06/07 02:28:04;;;;;;;30.13;10.75;;;;;;;10.00;100.00;101938.78;5045461;28;20262;-45
2023/06/07 02:30:29;;;;;;;26.20;9.40;;;;;;;10.06;100.00;101930.63;5043462;28;20213;-46
2023/06/07 02:32:56;;;;;;;27.02;8.77;;;;;;;9.84;100.00;101946.19;5033144;28;20164;-43
2023/06/07 02:35:22;;;;;;;25.00;8.43;;;;;;;9.82;100.00;101938.19;5041465;28;20180;-43
2023/06/07 02:37:48;;;;;;;18.25;8.55;;;;;;;9.64;100.00;101936.72;5038643;28;20183;-43
2023/06/07 02:40:14;;;;;;;27.52;9.65;;;;;;;9.80;100.00;101934.66;5040246;28;20195;-43
2023/06/07 02:42:46;;;;;;;20.88;9.50;;;;;;;9.64;100.00;101942.06;5046762;28;20184;-43
2023/06/07 02:45:13;;;;;;;19.10;9.38;;;;;;;9.76;100.00;101940.97;5033720;28;20184;-44
2023/06/07 02:47:39;;;;;;;19.08;10.07;;;;;;;9.85;100.00;101943.47;5044888;28;20277;-43
2023/06/07 02:50:06;;;;;;;21.25;9.82;;;;;;;9.79;100.00;101938.22;5039310;28;20183;-43
2023/06/07 02:52:36;;;;;;;19.48;8.52;;;;;;;9.35;100.00;101946.97;5035289;28;20179;-44
2023/06/07 02:57:37;;;;;;;25.10;10.30;;;;;;;9.57;100.00;101950.19;5009964;28;20309;-45
2023/06/07 03:00:13;;;;;;;18.98;10.20;;;;;;;9.64;100.00;101951.84;5022274;28;20196;-47
2023/06/07 03:02:54;;;;;;;17.17;9.30;;;;;;;9.69;100.00;101953.56;5023355;28;20179;-45
2023/06/07 03:05:19;;;;;;;18.38;9.45;;;;;;;9.55;100.00;101958.25;5018082;28;20207;-46
2023/06/07 03:07:50;;;;;;;39.75;10.70;;;;;;;9.48;100.00;101960.13;5025264;28;20195;-46
2023/06/07 03:10:16;;;;;;;39.35;10.02;;;;;;;9.32;100.00;101958.63;5016955;28;20181;-45
2023/06/07 03:12:42;;;;;;;20.38;10.25;;;;;;;9.40;100.00;101967.41;5026534;28;20187;-45
2023/06/07 03:15:08;;;;;;;21.60;10.77;;;;;;;9.47;100.00;101946.81;5018665;28;20563;-46
2023/06/07 03:17:36;;;;;;;20.08;10.45;;;;;;;9.59;100.00;101954.63;5016283;28;20655;-45
2023/06/07 03:20:06;;;;;;;21.33;11.35;;;;;;;9.59;100.00;101962.63;5026502;28;20208;-47
2023/06/07 03:22:32;;;;;;;20.75;11.68;;;;;;;9.61;100.00;101951.94;5028982;28;20248;-45
2023/06/07 03:25:02;;;;;;;23.25;12.38;;;;;;;9.77;100.00;101958.78;5027174;28;20193;-47
2023/06/07 03:27:29;;;;;;;24.20;10.68;;;;;;;9.62;100.00;101962.63;5016183;28;20200;-44
2023/06/07 03:30:00;;;;;;;17.30;10.57;;;;;;;9.76;100.00;101961.50;5019196;28;20231;-46
2023/06/07 03:32:26;;;;;;;17.95;10.45;;;;;;;9.87;100.00;101962.19;5020123;28;20193;-45
2023/06/07 03:34:52;;;;;;;27.90;11.70;;;;;;;9.62;100.00;101967.06;5018156;28;20192;-45
2023/06/07 03:37:18;;;;;;;20.10;11.90;;;;;;;9.71;100.00;101964.25;5024960;28;20632;-46
2023/06/07 03:39:44;;;;;;;21.42;11.88;;;;;;;9.68;100.00;101961.59;5020706;28;21188;-46
2023/06/07 03:42:09;;;;;;;16.52;11.70;;;;;;;9.68;100.00;101961.59;5021168;28;20179;-48
2023/06/07 03:44:37;;;;;;;18.88;10.13;;;;;;;9.54;100.00;101975.22;5024263;28;20711;-46
2023/06/07 03:47:03;;;;;;;15.65;9.73;;;;;;;9.61;100.00;101970.66;5026759;28;20294;-47
2023/06/07 03:49:29;;;;;;;18.75;11.20;;;;;;;9.54;100.00;101961.84;5024324;28;20168;-44
2023/06/07 03:51:56;;;;;;;20.90;11.48;;;;;;;9.45;100.00;101980.72;5009062;28;20184;-44
2023/06/07 03:54:22;;;;;;;19.92;10.43;;;;;;;9.58;100.00;101981.41;5032922;28;20188;-44
2023/06/07 03:56:48;;;;;;;18.67;10.60;;;;;;;9.41;100.00;101977.19;5039554;28;20222;-46
2023/06/07 03:59:15;;;;;;;18.10;10.43;;;;;;;9.47;100.00;101987.81;5045942;28;20175;-46
2023/06/07 04:01:42;;;;;;;13.27;9.52;;;;;;;9.49;100.00;101995.81;5045312;28;20612;-45
2023/06/07 04:04:09;;;;;;;17.52;11.18;;;;;;;9.27;100.00;101992.53;5040065;28;20184;-46
2023/06/07 04:06:36;;;;;;;20.17;10.18;;;;;;;9.11;100.00;101991.88;5035190;28;20315;-45
2023/06/07 04:09:04;;;;;;;16.70;9.93;;;;;;;9.03;100.00;101991.09;5037139;28;20254;-46
2023/06/07 04:11:29;;;;;;;14.18;10.38;;;;;;;9.10;100.00;101982.09;5036610;28;20715;-45
2023/06/07 04:13:55;;;;;;;15.48;9.80;;;;;;;9.37;100.00;101983.50;5035694;28;20176;-45
2023/06/07 04:16:24;;;;;;;16.90;10.27;;;;;;;9.42;100.00;101978.06;5032473;28;20220;-47
2023/06/07 04:18:49;;;;;;;15.20;10.30;;;;;;;9.05;100.00;101971.47;5037537;28;20183;-47
2023/06/07 04:21:16;;;;;;;16.92;11.10;;;;;;;9.19;100.00;101981.09;5035420;28;20198;-45
2023/06/07 04:23:44;;;;;;;17.77;11.18;;;;;;;9.26;100.00;101982.75;5044474;28;20540;-46
2023/06/07 04:26:18;;;;;;;16.88;10.13;;;;;;;9.29;100.00;101977.34;5044929;28;20297;-46
2023/06/07 04:28:45;;;;;;;18.35;12.00;;;;;;;9.32;100.00;101987.16;5043440;28;20180;-45
2023/06/07 04:31:12;;;;;;;17.98;11.13;;;;;;;9.36;100.00;101986.19;5037142;28;20265;-46
2023/06/07 04:33:39;;;;;;;22.45;11.32;;;;;;;9.27;100.00;101976.50;5038345;28;20187;-46
2023/06/07 04:36:08;;;;;;;22.52;11.15;;;;;;;9.41;100.00;101982.53;5044216;28;20226;-45
2023/06/07 04:38:39;;;;;;;23.63;11.48;;;;;;;9.47;100.00;101973.56;5048542;28;21009;-47
2023/06/07 04:41:07;;;;;;;17.75;10.35;;;;;;;9.59;100.00;101961.75;5049692;28;20207;-46
2023/06/07 04:43:37;;;;;;;19.63;10.93;;;;;;;9.48;100.00;101977.97;5047455;28;20169;-45
2023/06/07 04:46:04;;;;;;;14.27;9.88;;;;;;;9.36;100.00;101965.69;5050978;28;20219;-46
2023/06/07 04:48:32;;;;;;;19.55;11.82;;;;;;;9.36;100.00;101976.38;5045088;28;20234;-46
2023/06/07 04:51:03;;;;;;;20.77;12.32;;;;;;;9.40;100.00;101970.09;5041231;28;20184;-46
2023/06/07 04:53:36;;;;;;;23.00;12.15;;;;;;;9.42;100.00;101968.28;5042463;28;20577;-47
2023/06/07 04:56:04;;;;;;;21.23;11.32;;;;;;;9.63;100.00;101960.81;5048679;28;20242;-48
2023/06/07 04:58:31;;;;;;;18.80;11.13;;;;;;;9.80;100.00;101965.91;5043335;28;20176;-48
2023/06/07 05:01:00;;;;;;;21.23;11.18;;;;;;;9.91;100.00;101966.59;5049167;28;20280;-47
2023/06/07 05:03:26;;;;;;;19.83;11.20;;;;;;;10.02;100.00;101969.09;5041671;28;20309;-47
2023/06/07 05:05:55;;;;;;;17.65;10.65;;;;;;;9.96;100.00;101972.75;5039930;28;20211;-47
2023/06/07 05:08:23;;;;;;;18.15;9.93;;;;;;;9.77;100.00;101976.63;5040666;28;20194;-46
2023/06/07 05:10:49;;;;;;;20.83;9.18;;;;;;;9.73;100.00;101970.47;5048873;28;20194;-45
2023/06/07 05:13:14;;;;;;;17.67;9.35;;;;;;;9.65;100.00;101967.91;5043318;28;20611;-45
2023/06/07 05:15:40;;;;;;;15.07;9.70;;;;;;;9.68;100.00;101961.59;5040745;28;20273;-46
2023/06/07 05:18:07;;;;;;;19.45;9.32;;;;;;;9.78;100.00;101968.59;5039738;28;20176;-47
2023/06/07 05:20:33;;;;;;;15.80;8.88;;;;;;;9.93;100.00;101978.16;5047284;28;20308;-45
2023/06/07 05:23:02;;;;;;;15.95;9.30;;;;;;;10.04;100.00;101969.94;5048112;28;20273;-47
2023/06/07 05:25:28;;;;;;;20.75;8.45;;;;;;;9.96;100.00;101969.19;5040258;28;20199;-46
2023/06/07 05:27:53;;;;;;;18.83;7.90;;;;;;;10.03;100.00;101969.03;5043150;28;20168;-46
2023/06/07 05:30:19;;;;;;;15.68;7.70;;;;;;;10.29;100.00;101970.41;5042442;28;20203;-47
2023/06/07 05:32:45;;;;;;;19.90;8.70;;;;;;;10.24;100.00;101972.25;5048966;28;20230;-47
2023/06/07 05:35:11;;;;;;;20.33;8.57;;;;;;;10.30;100.00;101977.53;5047168;28;20680;-46
2023/06/07 05:37:42;;;;;;;18.08;8.60;;;;;;;10.50;100.00;101972.66;5038214;28;20207;-48
2023/06/07 05:40:10;;;;;;;19.45;8.07;;;;;;;10.47;100.00;101963.78;5039858;28;20208;-46
2023/06/07 05:42:38;;;;;;;17.55;8.68;;;;;;;10.13;100.00;101976.94;5031402;28;20222;-44
2023/06/07 05:45:06;;;;;;;16.88;7.93;;;;;;;10.34;100.00;101976.53;5039763;28;20201;-47
2023/06/07 05:47:31;;;;;;;21.30;7.88;;;;;;;10.47;100.00;101979.88;5036130;28;20207;-47
2023/06/07 05:49:57;;;;;;;18.70;8.13;;;;;;;10.56;100.00;101981.50;5040312;28;20520;-47
2023/06/07 05:52:23;;;;;;;24.80;9.40;;;;;;;10.43;100.00;101978.16;5047589;28;20198;-46
2023/06/07 05:54:50;;;;;;;24.52;9.38;;;;;;;10.27;100.00;101961.47;5038362;28;20274;-47
2023/06/07 05:57:16;;;;;;;18.80;9.23;;;;;;;10.35;100.00;101964.94;5036166;28;20211;-46
2023/06/07 05:59:42;;;;;;;19.42;10.13;;;;;;;10.47;100.00;101962.03;5041062;28;20203;-48
2023/06/07 06:02:08;;;;;;;18.88;9.90;;;;;;;10.41;100.00;101970.19;5044354;28;20215;-47
2023/06/07 06:04:34;;;;;;;24.75;10.82;;;;;;;10.48;100.00;101968.25;5039798;28;20266;-48
2023/06/07 06:07:03;;;;;;;23.10;10.23;;;;;;;10.87;100.00;101968.38;5036306;28;20191;-45
2023/06/07 06:09:29;;;;;;;20.42;9.60;;;;;;;10.67;100.00;101975.03;5039357;28;20204;-46
2023/06/07 06:11:55;;;;;;;21.05;9.38;;;;;;;10.92;100.00;101983.44;5039112;28;20179;-46
2023/06/07 06:14:25;;;;;;;14.73;9.63;;;;;;;11.10;100.00;101975.91;5038147;28;20176;-47
2023/06/07 06:16:51;;;;;;;16.17;10.40;;;;;;;11.23;100.00;101981.88;5040607;28;20229;-47
2023/06/07 06:19:16;;;;;;;16.77;8.98;;;;;;;11.31;100.00;101959.31;5037291;28;20205;-45
2023/06/07 06:21:42;;;;;;;14.90;7.32;;;;;;;11.45;100.00;101972.41;5039805;28;20179;-46
2023/06/07 06:24:08;;;;;;;17.67;7.55;;;;;;;11.40;100.00;101968.97;5035157;28;20195;-47
2023/06/07 06:26:33;;;;;;;19.20;7.50;;;;;;;11.29;100.00;101968.34;5036632;28;20607;-45
2023/06/07 06:28:59;;;;;;;20.60;7.38;;;;;;;11.47;100.00;101964.34;5039565;28;20168;-45
2023/06/07 06:31:25;;;;;;;19.50;7.68;;;;;;;11.38;100.00;101962.75;5036813;28;20175;-45
2023/06/07 06:33:51;;;;;;;14.73;8.10;;;;;;;11.46;100.00;101967.94;5036033;28;20279;-46
2023/06/07 06:36:17;;;;;;;15.70;7.50;;;;;;;11.70;100.00;101963.78;5038057;28;20218;-44
2023/06/07 06:38:42;;;;;;;17.95;8.18;;;;;;;11.73;100.00;101966.38;5037589;28;20193;-47
2023/06/07 06:41:11;;;;;;;19.85;8.68;;;;;;;11.76;100.00;101966.28;5038903;28;20206;-47
2023/06/07 06:43:37;;;;;;;16.50;8.52;;;;;;;12.11;100.00;101972.59;5039862;28;20246;-44
2023/06/07 06:46:04;;;;;;;16.73;8.55;;;;;;;12.31;100.00;101969.38;5045642;28;20200;-45
2023/06/07 06:48:30;;;;;;;20.75;8.65;;;;;;;12.44;100.00;101967.25;5039066;28;20192;-46
2023/06/07 06:50:55;;;;;;;14.50;7.47;;;;;;;12.55;100.00;101978.56;5043388;28;20190;-44
2023/06/07 06:53:21;;;;;;;23.67;8.77;;;;;;;12.41;100.00;101964.66;5047257;28;20244;-44
2023/06/07 06:55:47;;;;;;;20.55;7.63;;;;;;;11.93;100.00;101969.47;5037390;28;20219;-43
2023/06/07 06:58:13;;;;;;;14.60;7.88;;;;;;;11.96;100.00;101971.22;5028728;28;20199;-45
2023/06/07 07:00:39;;;;;;;17.65;8.65;;;;;;;11.95;100.00;101967.63;5039091;28;20288;-44
2023/06/07 07:03:05;;;;;;;19.95;8.70;;;;;;;11.93;100.00;101974.84;5044073;28;20179;-44
2023/06/07 07:05:30;;;;;;;15.15;8.35;;;;;;;11.94;100.00;101971.25;5032878;28;20183;-42
2023/06/07 07:07:56;;;;;;;18.73;7.75;;;;;;;12.39;100.00;101983.50;5040563;28;20262;-45
2023/06/07 07:10:22;;;;;;;17.90;8.23;;;;;;;12.08;100.00;101973.56;5025270;28;20225;-45
2023/06/07 07:12:48;;;;;;;17.20;7.57;;;;;;;11.91;100.00;101981.19;5037025;28;20530;-44
2023/06/07 07:15:14;;;;;;;15.57;6.65;;;;;;;12.07;100.00;101982.56;5041963;28;20318;-44
2023/06/07 07:17:48;;;;;;;13.18;7.22;;;;;;;12.58;100.00;101975.81;5039760;28;20257;-45
2023/06/07 07:20:15;;;;;;;16.25;7.05;;;;;;;12.91;100.00;101973.94;5035413;28;20300;-44
2023/06/07 07:22:43;;;;;;;14.57;6.43;;;;;;;13.03;100.00;101970.03;5035515;28;20179;-44
2023/06/07 07:25:10;;;;;;;11.98;5.75;;;;;;;13.68;100.00;101968.88;5037018;28;20182;-45
2023/06/07 07:27:36;;;;;;;19.30;6.95;;;;;;;13.49;98.72;101974.00;5038232;28;20682;-44
2023/06/07 07:30:02;;;;;;;12.75;6.25;;;;;;;13.73;97.06;101961.56;5040573;28;20199;-44
2023/06/07 07:32:28;;;;;;;11.95;5.45;;;;;;;14.51;95.02;101957.06;5037588;28;20256;-44
2023/06/07 07:34:53;;;;;;;20.02;7.55;;;;;;;13.60;92.82;101953.00;5039526;28;20543;-43
2023/06/07 07:37:19;;;;;;;13.25;7.07;;;;;;;14.04;92.07;101956.91;5046983;28;20191;-43
2023/06/07 07:39:45;;;;;;;12.50;5.78;;;;;;;14.75;90.11;101947.19;5037025;28;20561;-44
2023/06/07 07:42:10;;;;;;;14.23;6.50;;;;;;;14.98;87.85;101938.25;5038121;28;20191;-43
2023/06/07 07:44:37;;;;;;;17.40;5.93;;;;;;;14.88;85.62;101942.22;5039999;28;20257;-45
2023/06/07 07:47:05;;;;;;;17.48;5.72;;;;;;;15.08;84.91;101939.63;5036802;28;20686;-46
2023/06/07 07:49:30;;;;;;;9.75;4.68;;;;;;;15.38;84.24;101939.34;5038616;28;20200;-47
2023/06/07 07:51:56;;;;;;;14.52;5.78;;;;;;;15.95;83.72;101939.72;5036971;28;20188;-46
2023/06/07 07:54:22;;;;;;;13.75;5.65;;;;;;;15.32;83.08;101940.47;5035008;28;20191;-48
2023/06/07 07:56:47;;;;;;;15.43;5.45;;;;;;;15.43;83.27;101934.63;5039812;28;20235;-47
2023/06/07 07:59:13;;;;;;;15.80;5.65;;;;;;;15.94;83.36;101938.84;5035432;28;20227;-48
2023/06/07 08:01:38;;;;;;;12.40;5.05;;;;;;;15.43;81.39;101929.22;5038405;28;20179;-47
2023/06/07 08:04:04;;;;;;;9.95;4.45;;;;;;;15.93;81.14;101938.88;5038068;28;20178;-48
2023/06/07 08:06:29;;;;;;;11.55;4.45;;;;;;;15.82;80.83;101929.41;5033102;28;20553;-49
2023/06/07 08:08:55;;;;;;;11.25;4.75;;;;;;;16.32;80.01;101928.16;5037196;28;20180;-47
2023/06/07 08:11:21;;;;;;;11.43;4.38;;;;;;;16.29;78.66;101931.00;5040254;28;20278;-47
2023/06/07 08:13:47;;;;;;;12.68;5.10;;;;;;;16.41;78.03;101919.63;5036970;28;20183;-45
2023/06/07 08:16:12;;;;;;;12.55;4.90;;;;;;;16.75;77.34;101917.19;5037781;28;20214;-46
2023/06/07 08:18:38;;;;;;;11.73;4.28;;;;;;;17.22;76.35;101909.53;5039366;28;20179;-48
2023/06/07 08:21:04;;;;;;;12.90;5.13;;;;;;;16.05;75.63;101905.94;5038184;28;20693;-46
2023/06/07 08:23:30;;;;;;;13.43;5.60;;;;;;;15.62;77.41;101914.00;5038889;28;20175;-46
2023/06/07 08:25:57;;;;;;;14.68;4.05;;;;;;;16.52;78.19;101929.94;5036702;28;20241;-46
2023/06/07 08:28:24;;;;;;;13.88;4.80;;;;;;;16.84;76.55;101919.50;5034370;28;20741;-46
2023/06/07 08:30:49;;;;;;;15.00;4.70;;;;;;;17.00;76.39;101930.47;5038364;28;20201;-46
2023/06/07 08:33:15;;;;;;;14.27;4.70;;;;;;;16.92;75.21;101922.72;5040656;28;20175;-47
2023/06/07 08:35:41;;;;;;;14.15;4.63;;;;;;;16.46;75.19;101917.59;5035160;28;20175;-48
2023/06/07 08:38:07;;;;;;;11.82;4.45;;;;;;;17.25;75.00;101922.94;5033378;28;20192;-46
2023/06/07 08:40:35;;;;;;;14.35;4.70;;;;;;;17.06;74.80;101924.78;5034120;28;20200;-46
2023/06/07 08:43:01;;;;;;;14.88;4.60;;;;;;;17.87;72.54;101903.63;5045432;28;20238;-47
2023/06/07 08:45:27;;;;;;;9.15;4.03;;;;;;;18.36;71.47;101900.16;5038301;28;20179;-46
2023/06/07 08:47:53;;;;;;;18.83;4.78;;;;;;;17.86;70.61;101900.03;5035503;28;20191;-47
2023/06/07 08:50:21;;;;;;;11.63;4.55;;;;;;;17.58;70.49;101903.25;5037815;28;20206;-47
2023/06/07 08:52:53;;;;;;;12.10;4.28;;;;;;;18.30;70.77;101904.97;5036571;28;20184;-46
2023/06/07 08:55:19;;;;;;;14.18;4.20;;;;;;;18.36;69.26;101898.31;5032255;28;20705;-49
2023/06/07 08:57:52;;;;;;;13.63;4.38;;;;;;;17.96;69.49;101897.72;5042136;22;20230;-50
2023/06/07 09:00:22;;;;;;;12.13;4.45;;;;;;;17.77;69.60;101903.16;5040034;28;20237;-47
2023/06/07 09:02:54;;;;;;;10.30;4.00;;;;;;;18.08;69.75;101904.31;5036695;28;20196;-47
2023/06/07 09:05:21;;;;;;;13.20;4.05;;;;;;;18.79;69.86;101892.41;5035557;28;20227;-47
2023/06/07 09:07:48;;;;;;;14.13;4.18;;;;;;;19.32;68.22;101885.75;5030835;28;20549;-48
2023/06/07 09:10:17;;;;;;;13.15;4.13;;;;;;;19.50;66.81;101881.06;5038438;28;20272;-48
2023/06/07 09:12:47;;;;;;;14.07;4.25;;;;;;;18.83;66.04;101875.84;5034364;28;20279;-51
2023/06/07 09:15:18;;;;;;;13.05;3.92;;;;;;;19.59;66.08;101883.25;5033628;28;20588;-53
2023/06/07 09:18:02;;;;;;;12.82;4.50;;;;;;;19.67;64.38;101880.94;5036003;28;20211;-47
2023/06/07 09:20:35;;;;;;;21.27;5.30;;;;;;;19.68;63.64;101869.13;5037808;28;20199;-51
2023/06/07 09:23:08;;;;;;;13.63;4.18;;;;;;;19.40;63.70;101866.28;5039884;28;20199;-49
2023/06/07 09:25:35;;;;;;;13.85;4.63;;;;;;;19.89;63.17;101863.38;5039096;28;20175;-47
2023/06/07 09:28:19;;;;;;;14.52;3.88;;;;;;;20.03;62.08;101863.41;5043851;28;20186;-50
2023/06/07 09:30:56;;;;;;;13.18;3.85;;;;;;;19.82;63.27;101872.88;5045640;28;20481;-49
2023/06/07 09:33:35;;;;;;;12.35;3.92;;;;;;;19.07;62.07;101856.41;5041821;28;20642;-48
2023/06/07 09:36:09;;;;;;;12.27;3.88;;;;;;;19.09;63.58;101862.66;5042056;28;20199;-50
2023/06/07 09:38:37;;;;;;;13.52;4.40;;;;;;;18.84;63.30;101855.88;5039120;28;20681;-52
2023/06/07 09:41:05;;;;;;;13.85;4.43;;;;;;;19.89;62.44;101863.38;5034925;28;20257;-46
2023/06/07 09:43:47;;;;;;;7.80;3.75;;;;;;;20.52;61.84;101840.38;5039741;28;21342;-48
2023/06/07 09:46:14;;;;;;;16.83;4.05;;;;;;;20.12;61.85;101859.25;5039430;28;20199;-49
2023/06/07 09:48:53;;;;;;;17.85;4.38;;;;;;;20.11;61.43;101846.59;5042633;28;20184;-48
2023/06/07 09:51:20;;;;;;;19.17;4.40;;;;;;;19.81;61.09;101841.19;5033408;28;20183;-49
2023/06/07 09:53:51;;;;;;;19.98;4.22;;;;;;;20.30;61.66;101846.31;5041314;28;20247;-48
2023/06/07 09:56:17;;;;;;;18.15;4.97;;;;;;;19.34;62.07;101840.34;5040222;28;20200;-48
2023/06/07 09:58:46;;;;;;;15.93;4.00;;;;;;;19.11;62.54;101847.09;5042413;28;20194;-48
2023/06/07 10:01:11;;;;;;;20.15;4.60;;;;;;;19.81;62.86;101852.97;5043939;28;20274;-48
2023/06/07 10:03:44;;;;;;;13.52;4.32;;;;;;;;;;5037207;28;20197;-50
2023/06/07 10:06:10;;;;;;;17.98;4.72;;;;;;;20.51;60.05;101834.06;5037750;28;20219;-47
2023/06/07 10:08:37;;;;;;;11.98;4.50;;;;;;;20.67;59.78;101833.13;5041614;28;20183;-47
2023/06/07 10:11:03;;;;;;;15.60;3.80;;;;;;;19.94;60.36;101826.78;5041695;28;20207;-52
2023/06/07 10:13:28;;;;;;;11.80;3.90;;;;;;;20.26;61.53;101852.94;5036638;28;20638;-50
2023/06/07 10:15:55;;;;;;;11.30;4.13;;;;;;;21.17;60.85;101835.22;5037893;28;20617;-48
2023/06/07 10:18:26;;;;;;;9.93;3.92;;;;;;;20.80;59.32;101823.16;5041398;28;20206;-50
2023/06/07 10:21:02;;;;;;;19.98;4.10;;;;;;;20.45;60.19;101829.03;5048222;28;20261;-47
2023/06/07 10:23:42;;;;;;;12.77;3.67;;;;;;;20.83;59.16;101812.06;5047475;28;20357;-48
2023/06/07 10:26:18;;;;;;;11.02;3.38;;;;;;;21.38;57.59;101802.94;5040339;28;20645;-48
2023/06/07 10:29:03;;;;;;;12.02;3.65;;;;;;;21.62;57.36;101799.50;5038505;28;20210;-49
2023/06/07 10:31:34;;;;;;;10.57;3.60;;;;;;;21.03;57.61;101801.69;5044844;28;20286;-47
2023/06/07 10:34:07;;;;;;;8.70;3.40;;;;;;;21.96;54.65;101780.78;5039792;28;20239;-50
2023/06/07 10:36:36;;;;;;;10.05;3.90;;;;;;;21.29;54.47;101769.94;5038957;28;20201;-47
2023/06/07 10:39:02;;;;;;;13.02;3.88;;;;;;;21.65;54.49;101773.88;5038134;28;20188;-49
2023/06/07 10:41:28;;;;;;;14.52;3.72;;;;;;;21.33;54.78;101772.34;5050936;28;20199;-49
2023/06/07 10:43:54;;;;;;;8.52;3.85;;;;;;;21.37;54.93;101776.63;5038836;28;20190;-48
2023/06/07 10:46:23;;;;;;;10.57;3.67;;;;;;;20.69;54.62;101771.25;5037841;28;20207;-50
2023/06/07 10:48:52;;;;;;;9.48;3.47;;;;;;;;;;5039143;28;20709;-49
2023/06/07 10:51:40;;;;;;;20.08;3.70;;;;;;;20.52;55.02;101770.47;5039904;28;20535;-53
2023/06/07 10:54:06;;;;;;;9.75;3.28;;;;;;;21.12;55.31;101780.16;5039655;28;20206;-53
2023/06/07 10:56:34;;;;;;;5.72;3.05;;;;;;;21.98;53.95;101778.81;5039075;28;20210;-51
2023/06/07 10:59:15;;;;;;;11.02;3.70;;;;;;;22.10;52.95;101750.63;5052509;28;20174;-49
2023/06/07 11:01:43;;;;;;;13.07;3.90;;;;;;;21.43;52.70;101755.41;5037697;28;20210;-51
2023/06/07 11:04:31;;;;;;;14.50;4.03;;;;;;;21.77;52.36;101752.03;5039750;28;20181;-46
2023/06/07 11:07:22;;;;;;;11.32;3.25;;;;;;;21.70;52.27;101753.47;5036949;28;20203;-49
2023/06/07 11:10:00;;;;;;;10.15;3.42;;;;;;;21.54;51.73;101748.22;5037789;28;20183;-48
2023/06/07 11:12:34;;;;;;;8.25;3.80;;;;;;;20.92;53.42;101756.09;5055963;28;20185;-48
2023/06/07 11:15:24;;;;;;;7.90;3.95;;;;;;;21.29;53.92;101764.50;5039345;28;20228;-50
2023/06/07 11:17:52;;;;;;;10.65;3.80;;;;;;;21.29;54.71;101784.44;5039334;28;20198;-47
2023/06/07 11:20:35;;;;;;;9.13;3.63;;;;;;;21.33;54.40;101766.03;5041000;28;20206;-51